sensor_id;sensor_type;location;lat;lon;timestamp;temperature;humidity
15879;DHT22;61999;51.514;14.614;2023-04-09T00:00:03;-2.10;58.10
15879;DHT22;61999;51.514;14.614;2023-04-09T00:02:32;-2.20;58.00
15879;DHT22;61999;51.514;14.614;2023-04-09T00:05:00;-2.20;58.00
15879;DHT22;61999;51.514;14.614;2023-04-09T00:07:28;-2.20;58.00
15879;DHT22;61999;51.514;14.614;2023-04-09T00:09:57;-2.30;58.00
15879;DHT22;61999;51.514;14.614;2023-04-09T00:12:25;-2.20;58.40
15879;DHT22;61999;51.514;14.614;2023-04-09T00:14:53;-2.10;58.40
15879;DHT22;61999;51.514;14.614;2023-04-09T00:17:22;-2.10;58.00
15879;DHT22;61999;51.514;14.614;2023-04-09T00:19:50;-2.20;57.80
15879;DHT22;61999;51.514;14.614;2023-04-09T00:22:18;-2.30;57.90
15879;DHT22;61999;51.514;14.614;2023-04-09T00:24:46;-2.30;57.90
15879;DHT22;61999;51.514;14.614;2023-04-09T00:27:14;-2.30;58.20
15879;DHT22;61999;51.514;14.614;2023-04-09T00:29:42;-2.30;58.30
15879;DHT22;61999;51.514;14.614;2023-04-09T00:32:10;-2.30;58.30
15879;DHT22;61999;51.514;14.614;2023-04-09T00:34:40;-2.30;58.30
15879;DHT22;61999;51.514;14.614;2023-04-09T00:37:08;-2.40;58.20
15879;DHT22;61999;51.514;14.614;2023-04-09T00:39:36;-2.40;58.20
15879;DHT22;61999;51.514;14.614;2023-04-09T00:42:04;-2.50;58.20
15879;DHT22;61999;51.514;14.614;2023-04-09T00:44:32;-2.50;58.30
15879;DHT22;61999;51.514;14.614;2023-04-09T00:47:00;-2.50;58.30
15879;DHT22;61999;51.514;14.614;2023-04-09T00:49:28;-2.60;58.30
15879;DHT22;61999;51.514;14.614;2023-04-09T00:51:58;-2.60;58.30
15879;DHT22;61999;51.514;14.614;2023-04-09T00:54:26;-2.60;58.40
15879;DHT22;61999;51.514;14.614;2023-04-09T00:56:55;-2.60;58.50
15879;DHT22;61999;51.514;14.614;2023-04-09T00:59:24;-2.60;58.60
15879;DHT22;61999;51.514;14.614;2023-04-09T01:01:52;-2.60;58.60
15879;DHT22;61999;51.514;14.614;2023-04-09T01:04:21;-2.60;58.60
15879;DHT22;61999;51.514;14.614;2023-04-09T01:06:54;-2.60;58.50
15879;DHT22;61999;51.514;14.614;2023-04-09T01:09:32;-2.60;58.70
15879;DHT22;61999;51.514;14.614;2023-04-09T01:12:10;-2.60;58.60
15879;DHT22;61999;51.514;14.614;2023-04-09T01:14:50;-2.60;58.50
15879;DHT22;61999;51.514;14.614;2023-04-09T01:17:25;-2.70;58.40
15879;DHT22;61999;51.514;14.614;2023-04-09T01:20:04;-2.70;58.50
15879;DHT22;61999;51.514;14.614;2023-04-09T01:22:48;-2.70;58.70
15879;DHT22;61999;51.514;14.614;2023-04-09T01:25:42;-2.80;58.60
15879;DHT22;61999;51.514;14.614;2023-04-09T01:28:22;-2.80;58.60
15879;DHT22;61999;51.514;14.614;2023-04-09T01:30:59;-2.80;58.60
15879;DHT22;61999;51.514;14.614;2023-04-09T01:33:33;-2.90;58.60
15879;DHT22;61999;51.514;14.614;2023-04-09T01:36:07;-2.90;58.70
15879;DHT22;61999;51.514;14.614;2023-04-09T01:38:40;-2.80;59.00
15879;DHT22;61999;51.514;14.614;2023-04-09T01:41:14;-2.70;59.00
15879;DHT22;61999;51.514;14.614;2023-04-09T01:43:50;-2.70;58.90
15879;DHT22;61999;51.514;14.614;2023-04-09T01:46:21;-2.70;59.00
15879;DHT22;61999;51.514;14.614;2023-04-09T01:48:54;-2.70;58.80
15879;DHT22;61999;51.514;14.614;2023-04-09T01:51:25;-2.80;58.80
15879;DHT22;61999;51.514;14.614;2023-04-09T01:53:56;-2.90;58.80
15879;DHT22;61999;51.514;14.614;2023-04-09T01:56:27;-2.90;58.90
15879;DHT22;61999;51.514;14.614;2023-04-09T01:59:10;-2.90;58.90
15879;DHT22;61999;51.514;14.614;2023-04-09T02:01:44;-3.00;58.90
15879;DHT22;61999;51.514;14.614;2023-04-09T02:04:21;-3.00;58.90
15879;DHT22;61999;51.514;14.614;2023-04-09T02:06:57;-3.00;59.00
15879;DHT22;61999;51.514;14.614;2023-04-09T02:09:38;-3.00;59.00
15879;DHT22;61999;51.514;14.614;2023-04-09T02:12:11;-3.00;59.10
15879;DHT22;61999;51.514;14.614;2023-04-09T02:14:50;-3.00;59.10
15879;DHT22;61999;51.514;14.614;2023-04-09T02:17:27;-3.10;59.00
15879;DHT22;61999;51.514;14.614;2023-04-09T02:20:02;-3.10;59.10
15879;DHT22;61999;51.514;14.614;2023-04-09T02:22:33;-3.00;59.30
15879;DHT22;61999;51.514;14.614;2023-04-09T02:25:04;-3.00;59.30
15879;DHT22;61999;51.514;14.614;2023-04-09T02:27:35;-3.00;59.30
15879;DHT22;61999;51.514;14.614;2023-04-09T02:30:08;-3.00;59.20
15879;DHT22;61999;51.514;14.614;2023-04-09T02:32:39;-3.00;59.20
15879;DHT22;61999;51.514;14.614;2023-04-09T02:35:09;-3.00;59.20
15879;DHT22;61999;51.514;14.614;2023-04-09T02:37:41;-3.10;59.10
15879;DHT22;61999;51.514;14.614;2023-04-09T02:40:17;-3.10;59.20
15879;DHT22;61999;51.514;14.614;2023-04-09T02:42:50;-3.00;60.00
15879;DHT22;61999;51.514;14.614;2023-04-09T02:45:25;-2.90;59.40
15879;DHT22;61999;51.514;14.614;2023-04-09T02:47:57;-2.90;59.30
15879;DHT22;61999;51.514;14.614;2023-04-09T02:50:27;-2.90;59.10
15879;DHT22;61999;51.514;14.614;2023-04-09T02:52:56;-3.00;59.00
15879;DHT22;61999;51.514;14.614;2023-04-09T02:55:26;-3.00;59.00
15879;DHT22;61999;51.514;14.614;2023-04-09T02:57:56;-3.10;59.10
15879;DHT22;61999;51.514;14.614;2023-04-09T03:00:27;-3.00;59.20
15879;DHT22;61999;51.514;14.614;2023-04-09T03:03:00;-3.00;59.30
15879;DHT22;61999;51.514;14.614;2023-04-09T03:05:30;-3.00;59.20
15879;DHT22;61999;51.514;14.614;2023-04-09T03:08:00;-3.10;59.10
15879;DHT22;61999;51.514;14.614;2023-04-09T03:10:30;-3.10;59.10
15879;DHT22;61999;51.514;14.614;2023-04-09T03:12:59;-3.20;59.00
15879;DHT22;61999;51.514;14.614;2023-04-09T03:15:31;-3.20;59.20
15879;DHT22;61999;51.514;14.614;2023-04-09T03:18:01;-3.20;59.20
15879;DHT22;61999;51.514;14.614;2023-04-09T03:20:31;-3.20;59.20
15879;DHT22;61999;51.514;14.614;2023-04-09T03:23:01;-3.20;59.40
15879;DHT22;61999;51.514;14.614;2023-04-09T03:25:30;-3.20;59.30
15879;DHT22;61999;51.514;14.614;2023-04-09T03:28:00;-3.30;59.90
15879;DHT22;61999;51.514;14.614;2023-04-09T03:30:31;-3.30;59.20
15879;DHT22;61999;51.514;14.614;2023-04-09T03:33:00;-3.30;59.30
15879;DHT22;61999;51.514;14.614;2023-04-09T03:35:30;-3.30;59.40
15879;DHT22;61999;51.514;14.614;2023-04-09T03:38:00;-3.40;59.20
15879;DHT22;61999;51.514;14.614;2023-04-09T03:40:29;-3.40;59.30
15879;DHT22;61999;51.514;14.614;2023-04-09T03:43:00;-3.40;59.30
15879;DHT22;61999;51.514;14.614;2023-04-09T03:45:32;-3.40;59.50
15879;DHT22;61999;51.514;14.614;2023-04-09T03:48:02;-3.40;59.80
15879;DHT22;61999;51.514;14.614;2023-04-09T03:50:37;-3.40;59.50
15879;DHT22;61999;51.514;14.614;2023-04-09T03:54:12;-3.50;59.40
15879;DHT22;61999;51.514;14.614;2023-04-09T03:58:44;-3.50;59.40
15879;DHT22;61999;51.514;14.614;2023-04-09T04:06:37;-3.60;59.40
15879;DHT22;61999;51.514;14.614;2023-04-09T04:09:38;-3.60;59.40
15879;DHT22;61999;51.514;14.614;2023-04-09T04:13:22;-3.70;59.40
15879;DHT22;61999;51.514;14.614;2023-04-09T04:16:45;-3.70;59.40
15879;DHT22;61999;51.514;14.614;2023-04-09T04:19:15;-3.70;59.50
15879;DHT22;61999;51.514;14.614;2023-04-09T04:21:44;-3.70;59.50
15879;DHT22;61999;51.514;14.614;2023-04-09T04:24:13;-3.70;59.60
15879;DHT22;61999;51.514;14.614;2023-04-09T04:26:42;-3.70;59.60
15879;DHT22;61999;51.514;14.614;2023-04-09T04:29:12;-3.70;59.60
15879;DHT22;61999;51.514;14.614;2023-04-09T04:31:41;-3.80;59.60
15879;DHT22;61999;51.514;14.614;2023-04-09T04:34:11;-3.70;59.80
15879;DHT22;61999;51.514;14.614;2023-04-09T04:36:42;-3.70;59.80
15879;DHT22;61999;51.514;14.614;2023-04-09T04:39:11;-3.70;60.40
15879;DHT22;61999;51.514;14.614;2023-04-09T04:41:40;-3.70;59.70
15879;DHT22;61999;51.514;14.614;2023-04-09T04:44:09;-3.60;59.80
15879;DHT22;61999;51.514;14.614;2023-04-09T04:46:37;-3.60;59.90
15879;DHT22;61999;51.514;14.614;2023-04-09T04:49:06;-3.40;60.20
15879;DHT22;61999;51.514;14.614;2023-04-09T04:51:34;-3.30;59.80
15879;DHT22;61999;51.514;14.614;2023-04-09T04:54:03;-3.40;59.70
15879;DHT22;61999;51.514;14.614;2023-04-09T04:56:31;-3.40;59.80
15879;DHT22;61999;51.514;14.614;2023-04-09T04:58:59;-3.50;59.90
15879;DHT22;61999;51.514;14.614;2023-04-09T05:01:28;-3.50;59.90
15879;DHT22;61999;51.514;14.614;2023-04-09T05:03:55;-3.50;60.00
15879;DHT22;61999;51.514;14.614;2023-04-09T05:06:24;-3.50;60.00
15879;DHT22;61999;51.514;14.614;2023-04-09T05:08:53;-3.50;60.10
15879;DHT22;61999;51.514;14.614;2023-04-09T05:11:26;-3.50;60.20
15879;DHT22;61999;51.514;14.614;2023-04-09T05:13:56;-3.50;60.20
15879;DHT22;61999;51.514;14.614;2023-04-09T05:16:25;-3.50;60.30
15879;DHT22;61999;51.514;14.614;2023-04-09T05:18:54;-3.50;60.30
15879;DHT22;61999;51.514;14.614;2023-04-09T05:21:24;-3.50;60.50
15879;DHT22;61999;51.514;14.614;2023-04-09T05:23:53;-3.50;60.60
15879;DHT22;61999;51.514;14.614;2023-04-09T05:26:24;-3.50;60.70
15879;DHT22;61999;51.514;14.614;2023-04-09T05:28:53;-3.50;60.70
15879;DHT22;61999;51.514;14.614;2023-04-09T05:31:23;-3.50;60.80
15879;DHT22;61999;51.514;14.614;2023-04-09T05:33:53;-3.40;60.90
15879;DHT22;61999;51.514;14.614;2023-04-09T05:36:21;-3.40;61.00
15879;DHT22;61999;51.514;14.614;2023-04-09T05:38:49;-3.30;61.10
15879;DHT22;61999;51.514;14.614;2023-04-09T05:41:17;-3.30;61.20
15879;DHT22;61999;51.514;14.614;2023-04-09T05:43:46;-3.20;61.30
15879;DHT22;61999;51.514;14.614;2023-04-09T05:46:14;-3.10;61.60
15879;DHT22;61999;51.514;14.614;2023-04-09T05:48:43;-3.00;61.70
15879;DHT22;61999;51.514;14.614;2023-04-09T05:51:12;-2.90;61.60
15879;DHT22;61999;51.514;14.614;2023-04-09T05:53:42;-2.80;61.80
15879;DHT22;61999;51.514;14.614;2023-04-09T05:56:13;-2.70;61.70
15879;DHT22;61999;51.514;14.614;2023-04-09T05:58:43;-2.70;61.70
15879;DHT22;61999;51.514;14.614;2023-04-09T06:01:15;-2.70;61.80
15879;DHT22;61999;51.514;14.614;2023-04-09T06:03:44;-2.60;61.80
15879;DHT22;61999;51.514;14.614;2023-04-09T06:06:12;-2.60;61.90
15879;DHT22;61999;51.514;14.614;2023-04-09T06:08:41;-2.60;62.00
15879;DHT22;61999;51.514;14.614;2023-04-09T06:11:17;-2.50;62.10
15879;DHT22;61999;51.514;14.614;2023-04-09T06:13:50;-2.40;62.20
15879;DHT22;61999;51.514;14.614;2023-04-09T06:16:20;-2.40;62.20
15879;DHT22;61999;51.514;14.614;2023-04-09T06:18:50;-2.40;62.20
15879;DHT22;61999;51.514;14.614;2023-04-09T06:21:42;-2.30;62.40
15879;DHT22;61999;51.514;14.614;2023-04-09T06:24:11;-2.20;62.60
15879;DHT22;61999;51.514;14.614;2023-04-09T06:26:39;-2.10;62.80
15879;DHT22;61999;51.514;14.614;2023-04-09T06:29:07;-2.10;62.80
15879;DHT22;61999;51.514;14.614;2023-04-09T06:31:36;-1.90;63.00
15879;DHT22;61999;51.514;14.614;2023-04-09T06:34:04;-1.80;63.20
15879;DHT22;61999;51.514;14.614;2023-04-09T06:36:33;-1.80;63.20
15879;DHT22;61999;51.514;14.614;2023-04-09T06:39:03;-1.70;63.40
15879;DHT22;61999;51.514;14.614;2023-04-09T06:41:31;-1.50;63.50
15879;DHT22;61999;51.514;14.614;2023-04-09T06:43:59;-1.40;63.50
15879;DHT22;61999;51.514;14.614;2023-04-09T06:46:27;-1.30;63.90
15879;DHT22;61999;51.514;14.614;2023-04-09T06:48:57;-1.10;64.30
15879;DHT22;61999;51.514;14.614;2023-04-09T06:51:25;-0.90;64.10
15879;DHT22;61999;51.514;14.614;2023-04-09T06:53:53;-0.80;64.00
15879;DHT22;61999;51.514;14.614;2023-04-09T06:56:21;-0.70;64.10
15879;DHT22;61999;51.514;14.614;2023-04-09T06:58:49;-0.60;64.30
15879;DHT22;61999;51.514;14.614;2023-04-09T07:01:18;-0.50;64.70
15879;DHT22;61999;51.514;14.614;2023-04-09T07:03:46;-0.40;64.80
15879;DHT22;61999;51.514;14.614;2023-04-09T07:06:16;-0.10;64.70
15879;DHT22;61999;51.514;14.614;2023-04-09T07:08:44;0.20;64.20
15879;DHT22;61999;51.514;14.614;2023-04-09T07:11:12;0.40;64.10
15879;DHT22;61999;51.514;14.614;2023-04-09T07:13:50;0.70;63.60
15879;DHT22;61999;51.514;14.614;2023-04-09T07:16:28;0.90;62.80
15879;DHT22;61999;51.514;14.614;2023-04-09T07:18:56;1.10;61.50
15879;DHT22;61999;51.514;14.614;2023-04-09T07:21:26;1.10;60.90
15879;DHT22;61999;51.514;14.614;2023-04-09T07:23:54;1.10;60.90
15879;DHT22;61999;51.514;14.614;2023-04-09T07:26:23;1.00;61.40
15879;DHT22;61999;51.514;14.614;2023-04-09T07:28:51;1.00;61.90
15879;DHT22;61999;51.514;14.614;2023-04-09T07:31:19;1.00;62.40
15879;DHT22;61999;51.514;14.614;2023-04-09T07:33:47;1.10;62.70
15879;DHT22;61999;51.514;14.614;2023-04-09T07:36:15;1.20;62.90
15879;DHT22;61999;51.514;14.614;2023-04-09T07:38:44;1.30;62.50
15879;DHT22;61999;51.514;14.614;2023-04-09T07:41:12;1.60;61.10
15879;DHT22;61999;51.514;14.614;2023-04-09T07:43:41;1.90;59.80
15879;DHT22;61999;51.514;14.614;2023-04-09T07:46:09;2.00;59.70
15879;DHT22;61999;51.514;14.614;2023-04-09T07:48:37;2.00;59.70
15879;DHT22;61999;51.514;14.614;2023-04-09T07:51:05;2.10;59.30
15879;DHT22;61999;51.514;14.614;2023-04-09T07:53:34;2.40;58.00
15879;DHT22;61999;51.514;14.614;2023-04-09T07:56:12;2.40;57.80
15879;DHT22;61999;51.514;14.614;2023-04-09T07:58:40;2.30;58.50
15879;DHT22;61999;51.514;14.614;2023-04-09T08:01:08;2.20;58.90
15879;DHT22;61999;51.514;14.614;2023-04-09T08:03:36;2.30;59.00
15879;DHT22;61999;51.514;14.614;2023-04-09T08:06:04;2.20;59.20
15879;DHT22;61999;51.514;14.614;2023-04-09T08:08:32;2.30;59.10
15879;DHT22;61999;51.514;14.614;2023-04-09T08:11:01;2.40;58.90
15879;DHT22;61999;51.514;14.614;2023-04-09T08:13:30;2.60;58.20
15879;DHT22;61999;51.514;14.614;2023-04-09T08:15:59;2.70;57.80
15879;DHT22;61999;51.514;14.614;2023-04-09T08:18:28;2.70;57.90
15879;DHT22;61999;51.514;14.614;2023-04-09T08:20:56;2.80;57.70
15879;DHT22;61999;51.514;14.614;2023-04-09T08:23:24;2.90;57.30
15879;DHT22;61999;51.514;14.614;2023-04-09T08:25:53;2.80;57.80
15879;DHT22;61999;51.514;14.614;2023-04-09T08:28:21;2.70;58.20
15879;DHT22;61999;51.514;14.614;2023-04-09T08:30:51;2.70;58.10
15879;DHT22;61999;51.514;14.614;2023-04-09T08:33:19;2.70;58.60
15879;DHT22;61999;51.514;14.614;2023-04-09T08:35:47;2.70;59.00
15879;DHT22;61999;51.514;14.614;2023-04-09T08:38:15;2.70;59.30
15879;DHT22;61999;51.514;14.614;2023-04-09T08:40:43;2.80;59.60
15879;DHT22;61999;51.514;14.614;2023-04-09T08:43:14;2.90;59.10
15879;DHT22;61999;51.514;14.614;2023-04-09T08:45:43;3.10;58.30
15879;DHT22;61999;51.514;14.614;2023-04-09T08:48:14;3.20;58.10
15879;DHT22;61999;51.514;14.614;2023-04-09T08:50:49;3.20;58.50
15879;DHT22;61999;51.514;14.614;2023-04-09T08:53:22;3.30;58.80
15879;DHT22;61999;51.514;14.614;2023-04-09T08:55:54;3.40;59.00
15879;DHT22;61999;51.514;14.614;2023-04-09T08:58:23;3.50;58.70
15879;DHT22;61999;51.514;14.614;2023-04-09T09:01:01;3.70;58.60
15879;DHT22;61999;51.514;14.614;2023-04-09T09:03:55;3.90;57.20
15879;DHT22;61999;51.514;14.614;2023-04-09T09:06:40;4.20;56.30
15879;DHT22;61999;51.514;14.614;2023-04-09T09:09:50;4.40;55.10
15879;DHT22;61999;51.514;14.614;2023-04-09T09:12:33;4.40;55.90
15879;DHT22;61999;51.514;14.614;2023-04-09T09:15:33;4.40;55.90
15879;DHT22;61999;51.514;14.614;2023-04-09T09:18:15;4.50;55.40
15879;DHT22;61999;51.514;14.614;2023-04-09T09:20:46;4.70;54.80
15879;DHT22;61999;51.514;14.614;2023-04-09T09:23:14;4.70;55.20
15879;DHT22;61999;51.514;14.614;2023-04-09T09:25:42;4.70;55.30
15879;DHT22;61999;51.514;14.614;2023-04-09T09:28:11;4.70;55.40
15879;DHT22;61999;51.514;14.614;2023-04-09T09:30:45;4.80;54.70
15879;DHT22;61999;51.514;14.614;2023-04-09T09:33:34;4.90;54.80
15879;DHT22;61999;51.514;14.614;2023-04-09T09:36:04;5.00;55.20
15879;DHT22;61999;51.514;14.614;2023-04-09T09:38:50;5.40;53.10
15879;DHT22;61999;51.514;14.614;2023-04-09T09:41:20;5.40;53.50
15879;DHT22;61999;51.514;14.614;2023-04-09T09:43:48;5.60;53.10
15879;DHT22;61999;51.514;14.614;2023-04-09T09:46:17;5.90;50.90
15879;DHT22;61999;51.514;14.614;2023-04-09T09:48:47;5.90;51.70
15879;DHT22;61999;51.514;14.614;2023-04-09T09:51:18;5.80;52.50
15879;DHT22;61999;51.514;14.614;2023-04-09T09:53:54;5.80;53.20
15879;DHT22;61999;51.514;14.614;2023-04-09T09:56:24;5.90;52.50
15879;DHT22;61999;51.514;14.614;2023-04-09T09:59:03;6.00;51.90
15879;DHT22;61999;51.514;14.614;2023-04-09T10:01:34;6.10;51.80
15879;DHT22;61999;51.514;14.614;2023-04-09T10:04:05;6.20;51.20
15879;DHT22;61999;51.514;14.614;2023-04-09T10:06:35;6.30;50.50
15879;DHT22;61999;51.514;14.614;2023-04-09T10:09:04;6.30;51.20
15879;DHT22;61999;51.514;14.614;2023-04-09T10:11:35;6.40;51.00
15879;DHT22;61999;51.514;14.614;2023-04-09T10:14:04;6.50;51.00
15879;DHT22;61999;51.514;14.614;2023-04-09T10:16:32;6.50;52.00
15879;DHT22;61999;51.514;14.614;2023-04-09T10:19:01;6.60;51.50
15879;DHT22;61999;51.514;14.614;2023-04-09T10:21:37;6.90;50.00
15879;DHT22;61999;51.514;14.614;2023-04-09T10:24:09;7.10;49.00
15879;DHT22;61999;51.514;14.614;2023-04-09T10:26:40;7.20;49.40
15879;DHT22;61999;51.514;14.614;2023-04-09T10:29:11;7.00;49.70
15879;DHT22;61999;51.514;14.614;2023-04-09T10:31:47;7.00;51.00
15879;DHT22;61999;51.514;14.614;2023-04-09T10:34:21;7.00;51.80
15879;DHT22;61999;51.514;14.614;2023-04-09T10:36:54;7.20;51.20
15879;DHT22;61999;51.514;14.614;2023-04-09T10:39:25;7.30;51.70
15879;DHT22;61999;51.514;14.614;2023-04-09T10:41:55;7.50;50.90
15879;DHT22;61999;51.514;14.614;2023-04-09T10:44:26;7.90;48.50
15879;DHT22;61999;51.514;14.614;2023-04-09T10:46:57;8.00;49.80
15879;DHT22;61999;51.514;14.614;2023-04-09T10:49:26;8.00;50.40
15879;DHT22;61999;51.514;14.614;2023-04-09T10:52:03;8.20;49.00
15879;DHT22;61999;51.514;14.614;2023-04-09T10:54:43;8.60;46.40
15879;DHT22;61999;51.514;14.614;2023-04-09T10:57:17;8.50;48.20
15879;DHT22;61999;51.514;14.614;2023-04-09T10:59:49;8.80;45.50
15879;DHT22;61999;51.514;14.614;2023-04-09T11:02:41;8.60;46.20
15879;DHT22;61999;51.514;14.614;2023-04-09T11:05:29;8.50;47.00
15879;DHT22;61999;51.514;14.614;2023-04-09T11:08:05;8.60;46.90
15879;DHT22;61999;51.514;14.614;2023-04-09T11:10:35;8.50;47.40
15879;DHT22;61999;51.514;14.614;2023-04-09T11:13:04;8.50;47.40
15879;DHT22;61999;51.514;14.614;2023-04-09T11:15:34;8.70;47.50
15879;DHT22;61999;51.514;14.614;2023-04-09T11:18:03;8.80;48.40
15879;DHT22;61999;51.514;14.614;2023-04-09T11:20:33;9.00;50.20
15879;DHT22;61999;51.514;14.614;2023-04-09T11:23:01;9.30;51.20
15879;DHT22;61999;51.514;14.614;2023-04-09T11:25:32;9.90;50.90
15879;DHT22;61999;51.514;14.614;2023-04-09T11:28:02;10.50;45.20
15879;DHT22;61999;51.514;14.614;2023-04-09T11:30:31;11.10;45.10
15879;DHT22;61999;51.514;14.614;2023-04-09T11:33:01;11.40;42.00
15879;DHT22;61999;51.514;14.614;2023-04-09T11:35:32;11.40;43.80
15879;DHT22;61999;51.514;14.614;2023-04-09T11:38:05;11.50;43.00
15879;DHT22;61999;51.514;14.614;2023-04-09T11:40:41;11.70;41.80
15879;DHT22;61999;51.514;14.614;2023-04-09T11:43:15;11.60;42.50
15879;DHT22;61999;51.514;14.614;2023-04-09T11:45:52;11.50;42.60
15879;DHT22;61999;51.514;14.614;2023-04-09T11:48:22;11.60;39.70
15879;DHT22;61999;51.514;14.614;2023-04-09T11:50:50;11.60;40.50
15879;DHT22;61999;51.514;14.614;2023-04-09T11:53:20;11.30;41.30
15879;DHT22;61999;51.514;14.614;2023-04-09T11:55:52;11.10;40.70
15879;DHT22;61999;51.514;14.614;2023-04-09T11:58:22;11.00;40.30
15879;DHT22;61999;51.514;14.614;2023-04-09T12:00:52;10.90;40.20
15879;DHT22;61999;51.514;14.614;2023-04-09T12:03:28;10.70;40.80
15879;DHT22;61999;51.514;14.614;2023-04-09T12:05:59;10.30;41.90
15879;DHT22;61999;51.514;14.614;2023-04-09T12:08:29;10.10;42.30
15879;DHT22;61999;51.514;14.614;2023-04-09T12:11:08;10.00;41.90
15879;DHT22;61999;51.514;14.614;2023-04-09T12:13:38;10.10;41.60
15879;DHT22;61999;51.514;14.614;2023-04-09T12:16:13;9.90;42.60
15879;DHT22;61999;51.514;14.614;2023-04-09T12:18:50;9.70;43.50
15879;DHT22;61999;51.514;14.614;2023-04-09T12:21:24;9.60;44.20
15879;DHT22;61999;51.514;14.614;2023-04-09T12:23:57;9.60;44.20
15879;DHT22;61999;51.514;14.614;2023-04-09T12:26:31;9.80;44.40
15879;DHT22;61999;51.514;14.614;2023-04-09T12:29:03;9.70;45.40
15879;DHT22;61999;51.514;14.614;2023-04-09T12:31:36;9.80;46.30
15879;DHT22;61999;51.514;14.614;2023-04-09T12:34:12;10.00;47.20
15879;DHT22;61999;51.514;14.614;2023-04-09T12:36:48;10.50;45.10
15879;DHT22;61999;51.514;14.614;2023-04-09T12:39:26;10.90;44.50
15879;DHT22;61999;51.514;14.614;2023-04-09T12:42:01;11.30;44.10
15879;DHT22;61999;51.514;14.614;2023-04-09T12:44:34;11.60;43.50
15879;DHT22;61999;51.514;14.614;2023-04-09T12:47:11;11.90;44.00
15879;DHT22;61999;51.514;14.614;2023-04-09T12:49:49;12.30;41.30
15879;DHT22;61999;51.514;14.614;2023-04-09T12:52:23;12.40;40.40
15879;DHT22;61999;51.514;14.614;2023-04-09T12:55:01;12.60;38.30
15879;DHT22;61999;51.514;14.614;2023-04-09T12:57:43;12.40;39.20
15879;DHT22;61999;51.514;14.614;2023-04-09T13:00:26;12.40;39.20
15879;DHT22;61999;51.514;14.614;2023-04-09T13:03:06;12.20;39.90
15879;DHT22;61999;51.514;14.614;2023-04-09T13:05:45;12.10;40.30
15879;DHT22;61999;51.514;14.614;2023-04-09T13:08:25;12.10;40.80
15879;DHT22;61999;51.514;14.614;2023-04-09T13:11:03;12.10;41.70
15879;DHT22;61999;51.514;14.614;2023-04-09T13:13:42;12.20;42.40
15879;DHT22;61999;51.514;14.614;2023-04-09T13:16:21;12.20;42.30
15879;DHT22;61999;51.514;14.614;2023-04-09T13:19:01;12.30;42.70
15879;DHT22;61999;51.514;14.614;2023-04-09T13:21:39;12.40;43.00
15879;DHT22;61999;51.514;14.614;2023-04-09T13:24:16;12.50;43.30
15879;DHT22;61999;51.514;14.614;2023-04-09T13:26:54;12.60;43.10
15879;DHT22;61999;51.514;14.614;2023-04-09T13:29:35;12.90;41.30
15879;DHT22;61999;51.514;14.614;2023-04-09T13:32:14;13.00;40.90
15879;DHT22;61999;51.514;14.614;2023-04-09T13:34:53;12.90;41.60
15879;DHT22;61999;51.514;14.614;2023-04-09T13:37:31;12.90;42.20
15879;DHT22;61999;51.514;14.614;2023-04-09T13:40:07;13.00;41.50
15879;DHT22;61999;51.514;14.614;2023-04-09T13:42:40;13.00;41.90
15879;DHT22;61999;51.514;14.614;2023-04-09T13:45:16;13.00;42.40
15879;DHT22;61999;51.514;14.614;2023-04-09T13:47:52;13.10;43.00
15879;DHT22;61999;51.514;14.614;2023-04-09T13:50:28;13.30;42.20
15879;DHT22;61999;51.514;14.614;2023-04-09T13:53:02;13.50;42.90
15879;DHT22;61999;51.514;14.614;2023-04-09T13:55:37;13.70;43.00
15879;DHT22;61999;51.514;14.614;2023-04-09T13:58:13;13.90;42.70
15879;DHT22;61999;51.514;14.614;2023-04-09T14:00:51;14.20;40.00
15879;DHT22;61999;51.514;14.614;2023-04-09T14:03:28;14.60;38.90
15879;DHT22;61999;51.514;14.614;2023-04-09T14:06:03;14.60;40.40
15879;DHT22;61999;51.514;14.614;2023-04-09T14:08:40;14.80;41.30
15879;DHT22;61999;51.514;14.614;2023-04-09T14:11:15;15.00;42.00
15879;DHT22;61999;51.514;14.614;2023-04-09T14:13:54;15.30;40.30
15879;DHT22;61999;51.514;14.614;2023-04-09T14:16:32;15.40;41.30
15879;DHT22;61999;51.514;14.614;2023-04-09T14:19:07;15.50;39.30
15879;DHT22;61999;51.514;14.614;2023-04-09T14:21:48;15.50;39.10
15879;DHT22;61999;51.514;14.614;2023-04-09T14:24:27;15.50;38.70
15879;DHT22;61999;51.514;14.614;2023-04-09T14:27:12;15.40;38.30
15879;DHT22;61999;51.514;14.614;2023-04-09T14:29:55;15.30;37.60
15879;DHT22;61999;51.514;14.614;2023-04-09T14:32:35;15.10;38.30
15879;DHT22;61999;51.514;14.614;2023-04-09T14:35:24;14.90;37.70
15879;DHT22;61999;51.514;14.614;2023-04-09T14:38:06;14.80;37.90
15879;DHT22;61999;51.514;14.614;2023-04-09T14:40:43;14.70;38.30
15879;DHT22;61999;51.514;14.614;2023-04-09T14:43:20;14.60;37.60
15879;DHT22;61999;51.514;14.614;2023-04-09T14:45:56;14.40;37.60
15879;DHT22;61999;51.514;14.614;2023-04-09T14:48:36;14.10;37.80
15879;DHT22;61999;51.514;14.614;2023-04-09T14:51:16;13.90;37.80
15879;DHT22;61999;51.514;14.614;2023-04-09T14:53:57;13.70;37.90
15879;DHT22;61999;51.514;14.614;2023-04-09T14:56:37;13.40;39.00
15879;DHT22;61999;51.514;14.614;2023-04-09T14:59:29;13.10;38.50
15879;DHT22;61999;51.514;14.614;2023-04-09T15:02:12;12.90;38.80
15879;DHT22;61999;51.514;14.614;2023-04-09T15:05:07;12.70;39.10
15879;DHT22;61999;51.514;14.614;2023-04-09T15:08:03;12.40;39.10
15879;DHT22;61999;51.514;14.614;2023-04-09T15:11:23;12.20;39.60
15879;DHT22;61999;51.514;14.614;2023-04-09T15:14:22;12.00;39.80
15879;DHT22;61999;51.514;14.614;2023-04-09T15:16:55;11.80;39.90
15879;DHT22;61999;51.514;14.614;2023-04-09T15:19:32;11.60;40.20
15879;DHT22;61999;51.514;14.614;2023-04-09T15:22:24;11.40;40.40
15879;DHT22;61999;51.514;14.614;2023-04-09T15:25:32;11.20;40.40
15879;DHT22;61999;51.514;14.614;2023-04-09T15:28:44;11.00;40.80
15879;DHT22;61999;51.514;14.614;2023-04-09T15:32:03;10.80;40.90
15879;DHT22;61999;51.514;14.614;2023-04-09T15:35:07;10.60;41.30
15879;DHT22;61999;51.514;14.614;2023-04-09T15:37:58;10.50;41.50
15879;DHT22;61999;51.514;14.614;2023-04-09T15:40:32;10.40;41.80
15879;DHT22;61999;51.514;14.614;2023-04-09T15:43:06;10.30;42.10
15879;DHT22;61999;51.514;14.614;2023-04-09T15:45:48;10.20;42.20
15879;DHT22;61999;51.514;14.614;2023-04-09T15:48:47;10.10;42.40
15879;DHT22;61999;51.514;14.614;2023-04-09T15:51:55;10.10;42.90
15879;DHT22;61999;51.514;14.614;2023-04-09T15:55:08;10.10;43.00
15879;DHT22;61999;51.514;14.614;2023-04-09T15:58:20;10.10;43.00
15879;DHT22;61999;51.514;14.614;2023-04-09T16:01:34;10.10;42.80
15879;DHT22;61999;51.514;14.614;2023-04-09T16:04:45;10.00;42.80
15879;DHT22;61999;51.514;14.614;2023-04-09T16:07:49;9.90;43.30
15879;DHT22;61999;51.514;14.614;2023-04-09T16:10:38;10.00;43.40
15879;DHT22;61999;51.514;14.614;2023-04-09T16:13:15;10.00;43.40